Time;durP1;ratioP1;P1;durP2;ratioP2;P2;SDS_P1;SDS_P2;PMS_P1;PMS_P2;Temp;Humidity;BMP_temperature;BMP_pressure;BME280_temperature;BME280_humidity;BME280_pressure;Samples;Min_cycle;Max_cycle;Signal;HPM_P1;HPM_P2
2022/03/06 00:01:45;;;;;;;;;;;;;;;;;;6001216;23;19929;-89
2022/03/06 00:04:13;;;;;;;;;;;;;;;;;;6064436;23;19920;-89
2022/03/06 00:06:44;;;;;;;;;;;;;;;;;;6147048;23;20007;-88
2022/03/06 00:09:14;;;;;;;;;;;;;;;;;;6177028;23;19916;-88
2022/03/06 00:11:50;;;;;;;;;;;;;;;;;;;;;
2022/03/06 00:14:28;;;;;;;;;;;;;;;;;;6175172;23;20300;-89
2022/03/06 00:16:55;;;;;;;;;;;;;;;;;;6225035;22;19919;-88
2022/03/06 00:19:25;;;;;;;;;;;;;;;;;;6212144;22;19926;-88
2022/03/06 00:21:53;;;;;;;;;;;;;;;;;;6242291;22;20378;-88
2022/03/06 00:24:44;;;;;;;;;;;;;;;;;;6248672;22;19919;-89
2022/03/06 00:27:13;;;;;;;;;;;;;;;;;;6215746;22;19926;-89
2022/03/06 00:29:46;;;;;;;;;;;;;;;;;;6219505;22;19960;-89
2022/03/06 00:32:17;;;;;;;;;;;;;;;;;;6217625;22;19923;-88
2022/03/06 00:34:56;;;;;;;;;;;;;;;;;;6239773;22;20229;-88
2022/03/06 00:37:22;;;;;;;;;;;;;;;;;;6217436;22;20023;-88
2022/03/06 00:39:52;;;;;;;;;;;;;;;;;;6217168;22;20534;-88
2022/03/06 00:42:20;;;;;;;;;;;;;;;;;;6216735;22;19919;-89
2022/03/06 00:44:52;;;;;;;;;;;;;;;;;;6218078;22;20225;-88
2022/03/06 00:47:26;;;;;;;;;;;;;;;;;;6243994;22;19938;-88
2022/03/06 00:50:03;;;;;;;;;;;;;;;;;;6244614;22;20370;-89
2022/03/06 00:52:41;;;;;;;;;;;;;;;;;;;;;
2022/03/06 00:55:11;;;;;;;;;;;;;;;;;;6241973;22;19923;-89
2022/03/06 00:57:50;;;;;;;;;;;;;;;;;;6268941;22;19923;-88
2022/03/06 01:00:30;;;;;;;;;;;;;;;;;;6230790;22;20335;-88
2022/03/06 01:03:00;;;;;;;;;;;;;;;;;;6233465;22;19961;-88
2022/03/06 01:05:29;;;;;;;;;;;;;;;;;;6243630;22;19919;-89
2022/03/06 01:08:03;;;;;;;;;;;;;;;;;;6242372;22;19945;-89
2022/03/06 01:10:44;;;;;;;;;;;;;;;;;;6271520;22;20324;-89
2022/03/06 01:13:12;;;;;;;;;;;;;;;;;;6243178;22;20272;-88
2022/03/06 01:15:39;;;;;;;;;;;;;;;;;;6243305;22;19927;-88
2022/03/06 01:18:09;;;;;;;;;;;;;;;;;;6242898;22;19920;-88
2022/03/06 01:20:56;;;;;;;;;;;;;;;;;;6175423;23;19978;-89
2022/03/06 01:23:33;;;;;;;;;;;;;;;;;;6151586;23;19917;-89
2022/03/06 01:26:10;;;;;;;;;;;;;;;;;;6175843;23;19920;-88
2022/03/06 01:28:43;;;;;;;;;;;;;;;;;;6177047;23;19956;-89
2022/03/06 01:31:22;;;;;;;;;;;;;;;;;;6175847;23;20337;-88
2022/03/06 01:33:49;;;;;;;;;;;;;;;;;;6150198;23;19924;-88
2022/03/06 01:36:19;;;;;;;;;;;;;;;;;;6150700;23;19958;-88
2022/03/06 01:39:09;;;;;;;;;;;;;;;;;;6087977;23;20017;-88
2022/03/06 01:41:38;;;;;;;;;;;;;;;;;;6062951;23;19953;-89
2022/03/06 01:44:05;;;;;;;;;;;;;;;;;;6085745;23;19921;-88
2022/03/06 01:46:31;;;;;;;;;;;;;;;;;;6086880;23;19918;-89
2022/03/06 01:49:10;;;;;;;;;;;;;;;;;;6087436;23;19972;-87
2022/03/06 01:51:37;;;;;;;;;;;;;;;;;;6090894;23;20680;-89
2022/03/06 01:54:08;;;;;;;;;;;;;;;;;;6127467;23;19924;-89
2022/03/06 01:57:05;;;;;;;;;;;;;;;;;;6127045;23;20327;-89
2022/03/06 01:59:53;;;;;;;;;;;;;;;;;;6174673;23;20383;-90
2022/03/06 02:02:20;;;;;;;;;;;;;;;;;;6125183;23;20464;-90
2022/03/06 02:04:51;;;;;;;;;;;;;;;;;;6124911;23;20044;-89
2022/03/06 02:07:17;;;;;;;;;;;;;;;;;;6149726;23;20014;-90
2022/03/06 02:09:55;;;;;;;;;;;;;;;;;;6127014;23;19955;-89
2022/03/06 02:12:23;;;;;;;;;;;;;;;;;;6149376;23;19963;-89
2022/03/06 02:15:06;;;;;;;;;;;;;;;;;;6130929;23;20526;-89
2022/03/06 02:17:37;;;;;;;;;;;;;;;;;;6186017;23;19962;-89
2022/03/06 02:20:06;;;;;;;;;;;;;;;;;;6210799;23;20328;-89
2022/03/06 02:22:33;;;;;;;;;;;;;;;;;;6184657;23;19915;-89
2022/03/06 02:25:01;;;;;;;;;;;;;;;;;;6185832;23;20324;-89
2022/03/06 02:30:32;;;;;;;;;;;;;;;;;;6211998;23;19924;-89
2022/03/06 02:33:22;;;;;;;;;;;;;;;;;;6215677;23;19998;-90
2022/03/06 02:36:04;;;;;;;;;;;;;;;;;;6214274;23;19926;-89
2022/03/06 02:39:00;;;;;;;;;;;;;;;;;;6236683;23;20448;-89
2022/03/06 02:41:27;;;;;;;;;;;;;;;;;;6208311;23;20394;-89
2022/03/06 02:44:07;;;;;;;;;;;;;;;;;;6202318;23;19962;-89
2022/03/06 02:46:39;;;;;;;;;;;;;;;;;;6180106;23;19953;-89
2022/03/06 02:49:09;;;;;;;;;;;;;;;;;;6175880;23;19947;-88
2022/03/06 02:51:59;;;;;;;;;;;;;;;;;;6175546;23;19953;-89
2022/03/06 02:54:27;;;;;;;;;;;;;;;;;;6154139;23;19927;-89
2022/03/06 02:57:05;;;;;;;;;;;;;;;;;;6181842;23;19920;-89
2022/03/06 02:59:53;;;;;;;;;;;;;;;;;;6214736;23;19915;-89
2022/03/06 03:02:34;;;;;;;;;;;;;;;;;;6171486;23;19947;-88
2022/03/06 03:05:13;;;;;;;;;;;;;;;;;;6233284;23;19919;-89
2022/03/06 03:07:50;;;;;;;;;;;;;;;;;;;;;
2022/03/06 03:10:23;;;;;;;;;;;;;;;;;;6212085;23;19926;-89
2022/03/06 03:12:52;;;;;;;;;;;;;;;;;;6233443;23;19919;-88
2022/03/06 03:15:30;;;;;;;;;;;;;;;;;;;;;
2022/03/06 03:18:09;;;;;;;;;;;;;;;;;;6210865;23;19919;-89
2022/03/06 03:20:36;;;;;;;;;;;;;;;;;;6211355;23;20005;-89
2022/03/06 03:23:02;;;;;;;;;;;;;;;;;;6210120;23;19915;-89
2022/03/06 03:25:31;;;;;;;;;;;;;;;;;;6206091;23;19926;-89
2022/03/06 03:31:08;;;;;;;;;;;;;;;;;;6103573;23;19917;-88
2022/03/06 03:33:52;;;;;;;;;;;;;;;;;;6114864;23;19929;-88
2022/03/06 03:36:25;;;;;;;;;;;;;;;;;;6092256;23;19925;-89
2022/03/06 03:39:17;;;;;;;;;;;;;;;;;;6114117;23;19924;-89
2022/03/06 03:44:36;;;;;;;;;;;;;;;;;;6113409;23;19949;-88
2022/03/06 03:50:12;;;;;;;;;;;;;;;;;;6019368;23;19924;-89
2022/03/06 03:53:02;;;;;;;;;;;;;;;;;;6007906;23;19922;-89
2022/03/06 03:55:47;;;;;;;;;;;;;;;;;;6054160;23;20456;-89
2022/03/06 03:58:23;;;;;;;;;;;;;;;;;;6013720;23;19928;-90
2022/03/06 04:00:54;;;;;;;;;;;;;;;;;;6090964;23;19921;-90
2022/03/06 04:03:25;;;;;;;;;;;;;;;;;;6084652;23;20000;-88
2022/03/06 04:06:03;;;;;;;;;;;;;;;;;;;;;
2022/03/06 04:08:41;;;;;;;;;;;;;;;;;;6023349;23;19921;-89
2022/03/06 04:11:18;;;;;;;;;;;;;;;;;;;;;
2022/03/06 04:13:58;;;;;;;;;;;;;;;;;;6003552;23;20694;-89
2022/03/06 04:19:15;;;;;;;;;;;;;;;;;;6045316;23;19921;-89
2022/03/06 04:21:59;;;;;;;;;;;;;;;;;;6087400;23;20044;-89
2022/03/06 04:24:26;;;;;;;;;;;;;;;;;;6144140;23;19928;-89
2022/03/06 04:27:00;;;;;;;;;;;;;;;;;;6113789;23;19916;-90
2022/03/06 04:29:39;;;;;;;;;;;;;;;;;;6175186;23;20301;-89
2022/03/06 04:32:09;;;;;;;;;;;;;;;;;;6141816;23;19924;-88
2022/03/06 04:34:48;;;;;;;;;;;;;;;;;;6127824;23;19920;-89
2022/03/06 04:37:16;;;;;;;;;;;;;;;;;;6151322;23;20249;-89
2022/03/06 04:40:02;;;;;;;;;;;;;;;;;;6153544;23;19954;-88
2022/03/06 04:42:36;;;;;;;;;;;;;;;;;;6150744;23;19920;-89
2022/03/06 04:45:31;;;;;;;;;;;;;;;;;;;;;
2022/03/06 04:48:07;;;;;;;;;;;;;;;;;;6150173;23;19923;-89
2022/03/06 04:50:45;;;;;;;;;;;;;;;;;;6122198;23;19962;-89
2022/03/06 04:53:20;;;;;;;;;;;;;;;;;;6119536;23;20084;-89
2022/03/06 04:55:46;;;;;;;;;;;;;;;;;;6147744;23;19920;-88
2022/03/06 04:58:13;;;;;;;;;;;;;;;;;;6150027;23;20333;-89
2022/03/06 05:00:43;;;;;;;;;;;;;;;;;;6147755;23;20415;-89
2022/03/06 05:03:12;;;;;;;;;;;;;;;;;;6138304;23;20650;-89
2022/03/06 05:05:44;;;;;;;;;;;;;;;;;;6180388;23;20257;-89
2022/03/06 05:08:26;;;;;;;;;;;;;;;;;;6158161;23;19920;-89
2022/03/06 05:11:23;;;;;;;;;;;;;;;;;;6205393;23;19920;-88
2022/03/06 05:13:54;;;;;;;;;;;;;;;;;;6154904;23;19924;-88
2022/03/06 05:16:28;;;;;;;;;;;;;;;;;;6181251;23;19926;-88
2022/03/06 05:19:02;;;;;;;;;;;;;;;;;;6216989;22;19923;-88
2022/03/06 05:21:39;;;;;;;;;;;;;;;;;;;;;
2022/03/06 05:24:17;;;;;;;;;;;;;;;;;;6243658;22;19923;-89
2022/03/06 05:27:00;;;;;;;;;;;;;;;;;;6245395;22;19919;-88
2022/03/06 05:29:27;;;;;;;;;;;;;;;;;;6262318;22;19954;-89
2022/03/06 05:32:03;;;;;;;;;;;;;;;;;;6217054;22;19919;-88
2022/03/06 05:34:33;;;;;;;;;;;;;;;;;;6217259;22;19922;-89
2022/03/06 05:37:25;;;;;;;;;;;;;;;;;;6244280;22;19934;-90
2022/03/06 05:40:02;;;;;;;;;;;;;;;;;;6243188;22;20560;-90
2022/03/06 05:42:39;;;;;;;;;;;;;;;;;;;;;
2022/03/06 05:45:07;;;;;;;;;;;;;;;;;;6224554;22;19986;-87
2022/03/06 05:47:37;;;;;;;;;;;;;;;;;;6243665;22;19919;-88
2022/03/06 05:50:08;;;;;;;;;;;;;;;;;;6238589;22;20003;-89
2022/03/06 05:52:41;;;;;;;;;;;;;;;;;;6216353;22;20225;-89
2022/03/06 05:55:09;;;;;;;;;;;;;;;;;;6250304;22;19919;-89
2022/03/06 05:57:37;;;;;;;;;;;;;;;;;;6205537;23;20234;-89
2022/03/06 06:00:12;;;;;;;;;;;;;;;;;;6156823;23;19920;-89
2022/03/06 06:02:49;;;;;;;;;;;;;;;;;;6156807;23;19924;-89
2022/03/06 06:05:22;;;;;;;;;;;;;;;;;;6180670;23;19970;-89
2022/03/06 06:08:06;;;;;;;;;;;;;;;;;;6182672;23;20642;-88
2022/03/06 06:10:51;;;;;;;;;;;;;;;;;;6185230;23;20372;-89
2022/03/06 06:13:34;;;;;;;;;;;;;;;;;;6116252;23;19928;-89
2022/03/06 06:16:02;;;;;;;;;;;;;;;;;;6067685;23;19928;-89
2022/03/06 06:18:31;;;;;;;;;;;;;;;;;;6068274;23;19928;-90
2022/03/06 06:20:57;;;;;;;;;;;;;;;;;;6068319;23;19953;-89
2022/03/06 06:23:33;;;;;;;;;;;;;;;;;;6067797;23;20243;-89
2022/03/06 06:26:12;;;;;;;;;;;;;;;;;;6115313;23;20266;-89
2022/03/06 06:28:49;;;;;;;;;;;;;;;;;;;;;
2022/03/06 06:31:16;;;;;;;;;;;;;;;;;;6121195;23;19917;-89
2022/03/06 06:33:42;;;;;;;;;;;;;;;;;;6081801;23;19961;-89
2022/03/06 06:36:35;;;;;;;;;;;;;;;;;;5954195;24;20276;-89
2022/03/06 06:39:05;;;;;;;;;;;;;;;;;;5997240;23;19918;-90
2022/03/06 06:41:36;;;;;;;;;;;;;;;;;;5976129;23;19922;-89
2022/03/06 06:44:09;;;;;;;;;;;;;;;;;;5993478;23;19918;-89
2022/03/06 06:46:36;;;;;;;;;;;;;;;;;;6035052;23;19917;-88
2022/03/06 06:49:07;;;;;;;;;;;;;;;;;;6038128;23;19925;-89
2022/03/06 06:51:42;;;;;;;;;;;;;;;;;;6033725;23;19976;-89
2022/03/06 06:54:13;;;;;;;;;;;;;;;;;;6033837;23;19929;-89
2022/03/06 06:56:42;;;;;;;;;;;;;;;;;;6010183;23;19989;-89
2022/03/06 06:59:14;;;;;;;;;;;;;;;;;;6009608;23;19947;-90
2022/03/06 07:01:53;;;;;;;;;;;;;;;;;;;;;
2022/03/06 07:04:20;;;;;;;;;;;;;;;;;;6036887;23;20351;-89
2022/03/06 07:06:50;;;;;;;;;;;;;;;;;;6055222;23;19924;-90
2022/03/06 07:09:26;;;;;;;;;;;;;;;;;;6123957;23;19987;-89
2022/03/06 07:11:57;;;;;;;;;;;;;;;;;;6168763;23;20236;-89
2022/03/06 07:14:41;;;;;;;;;;;;;;;;;;6177821;23;19978;-90
2022/03/06 07:17:12;;;;;;;;;;;;;;;;;;6129037;23;20361;-89
2022/03/06 07:19:49;;;;;;;;;;;;;;;;;;;;;
2022/03/06 07:25:10;;;;;;;;;;;;;;;;;;6143421;23;19916;-89
2022/03/06 07:27:36;;;;;;;;;;;;;;;;;;6175983;23;19955;-89
2022/03/06 07:30:03;;;;;;;;;;;;;;;;;;6152930;23;19927;-89
2022/03/06 07:32:48;;;;;;;;;;;;;;;;;;6153977;23;20245;-90
2022/03/06 07:35:17;;;;;;;;;;;;;;;;;;6129797;23;20285;-89
2022/03/06 07:37:46;;;;;;;;;;;;;;;;;;6128124;23;19921;-90
2022/03/06 07:40:15;;;;;;;;;;;;;;;;;;6127775;23;19951;-91
2022/03/06 07:42:42;;;;;;;;;;;;;;;;;;6127897;23;19927;-90
2022/03/06 07:45:18;;;;;;;;;;;;;;;;;;;;;
2022/03/06 07:47:45;;;;;;;;;;;;;;;;;;6212583;23;20713;-90
2022/03/06 07:50:29;;;;;;;;;;;;;;;;;;6213082;23;19963;-90
2022/03/06 07:53:10;;;;;;;;;;;;;;;;;;6240084;23;19930;-89
2022/03/06 07:55:39;;;;;;;;;;;;;;;;;;6213071;23;19920;-89
2022/03/06 07:58:16;;;;;;;;;;;;;;;;;;;;;
2022/03/06 08:00:43;;;;;;;;;;;;;;;;;;6214369;23;19915;-89
2022/03/06 08:03:12;;;;;;;;;;;;;;;;;;6224499;22;19919;-89
2022/03/06 08:05:42;;;;;;;;;;;;;;;;;;6216663;22;19930;-89
2022/03/06 08:08:08;;;;;;;;;;;;;;;;;;6235682;22;20275;-89
2022/03/06 08:10:39;;;;;;;;;;;;;;;;;;6216150;22;19958;-89
2022/03/06 08:13:15;;;;;;;;;;;;;;;;;;6234522;22;19923;-90
2022/03/06 08:15:41;;;;;;;;;;;;;;;;;;6206655;23;19919;-90
2022/03/06 08:18:16;;;;;;;;;;;;;;;;;;6202710;23;19919;-89
2022/03/06 08:20:47;;;;;;;;;;;;;;;;;;6182418;23;19923;-90
2022/03/06 08:23:16;;;;;;;;;;;;;;;;;;6121682;23;19991;-90
2022/03/06 08:25:46;;;;;;;;;;;;;;;;;;6096481;23;20003;-89
2022/03/06 08:28:12;;;;;;;;;;;;;;;;;;6146753;23;19921;-89
2022/03/06 08:30:44;;;;;;;;;;;;;;;;;;6146467;23;19924;-90
2022/03/06 08:33:35;;;;;;;;;;;;;;;;;;6124360;23;19928;-90
2022/03/06 08:36:36;;;;;;;;;;;;;;;;;;;;;
2022/03/06 08:39:07;;;;;;;;;;;;;;;;;;6026942;23;19917;-89
2022/03/06 08:41:46;;;;;;;;;;;;;;;;;;6121605;23;19932;-89
2022/03/06 08:44:47;;;;;;;;;;;;;;;;;;6058354;23;20077;-89
2022/03/06 08:47:29;;;;;;;;;;;;;;;;;;6058393;23;19918;-89
2022/03/06 08:49:55;;;;;;;;;;;;;;;;;;6033762;23;20275;-90
2022/03/06 08:52:38;;;;;;;;;;;;;;;;;;6065206;23;20327;-90
2022/03/06 08:55:24;;;;;;;;;;;;;;;;;;6080960;23;19921;-90
2022/03/06 08:57:53;;;;;;;;;;;;;;;;;;6096384;23;19921;-90
2022/03/06 09:00:39;;;;;;;;;;;;;;;;;;;;;
2022/03/06 09:04:22;;;;;;;;;;;;;;;;;;;;;
2022/03/06 09:06:34;;;;;;;;;;;;;;;;;;6081243;23;19960;-90
2022/03/06 09:09:03;;;;;;;;;;;;;;;;;;6089910;23;19989;-90
2022/03/06 09:11:29;;;;;;;;;;;;;;;;;;6058182;23;19921;-89
2022/03/06 09:14:08;;;;;;;;;;;;;;;;;;6033898;23;19929;-89
2022/03/06 09:16:59;;;;;;;;;;;;;;;;;;6100284;23;20293;-89
2022/03/06 09:19:33;;;;;;;;;;;;;;;;;;6152396;23;19916;-90
2022/03/06 09:22:03;;;;;;;;;;;;;;;;;;6123963;23;19963;-89
2022/03/06 09:24:36;;;;;;;;;;;;;;;;;;6123513;23;19927;-90
2022/03/06 09:27:12;;;;;;;;;;;;;;;;;;6125124;23;20076;-90
2022/03/06 09:33:17;;;;;;;;;;;;;;;;;;;;;
2022/03/06 09:35:55;;;;;;;;;;;;;;;;;;6080828;23;20314;-89
2022/03/06 09:38:32;;;;;;;;;;;;;;;;;;;;;
2022/03/06 09:41:04;;;;;;;;;;;;;;;;;;6067912;23;19921;-89
2022/03/06 09:44:32;;;;;;;;;;;;;;;;;;;;;
2022/03/06 09:46:56;;;;;;;;;;;;;;;;;;6051211;23;20004;-90
2022/03/06 09:52:23;;;;;;;;;;;;;;;;;;6080955;23;20350;-90
2022/03/06 09:55:02;;;;;;;;;;;;;;;;;;6057496;23;20024;-89
2022/03/06 10:00:46;;;;;;;;;;;;;;;;;;6032826;23;19957;-90
2022/03/06 10:03:22;;;;;;;;;;;;;;;;;;6032870;23;19924;-89
2022/03/06 10:06:01;;;;;;;;;;;;;;;;;;6063291;23;19960;-89
2022/03/06 10:08:45;;;;;;;;;;;;;;;;;;6038547;23;20007;-90
2022/03/06 10:11:40;;;;;;;;;;;;;;;;;;;;;
2022/03/06 10:24:17;;;;;;;;;;;;;;;;;;5887456;24;19945;-90
2022/03/06 10:26:42;;;;;;;;;;;;;;;;;;5868201;24;20197;-90
2022/03/06 10:29:22;;;;;;;;;;;;;;;;;;5867852;24;19923;-91
2022/03/06 10:32:07;;;;;;;;;;;;;;;;;;5930199;24;19994;-90
2022/03/06 10:34:49;;;;;;;;;;;;;;;;;;5899745;24;21513;-90
2022/03/06 10:37:24;;;;;;;;;;;;;;;;;;5921050;24;19958;-90
2022/03/06 10:39:51;;;;;;;;;;;;;;;;;;5939319;24;19927;-90
2022/03/06 10:42:20;;;;;;;;;;;;;;;;;;5954344;23;20401;-90
2022/03/06 10:44:53;;;;;;;;;;;;;;;;;;6056040;23;19921;-91
2022/03/06 10:47:29;;;;;;;;;;;;;;;;;;6061611;23;19965;-90
2022/03/06 10:50:05;;;;;;;;;;;;;;;;;;6063049;23;20270;-90
2022/03/06 10:52:33;;;;;;;;;;;;;;;;;;6095773;23;19924;-89
2022/03/06 10:55:00;;;;;;;;;;;;;;;;;;6120224;23;19952;-91
2022/03/06 10:57:37;;;;;;;;;;;;;;;;;;6118575;23;20105;-90
2022/03/06 11:03:02;;;;;;;;;;;;;;;;;;6115685;22;19915;-90
2022/03/06 11:05:31;;;;;;;;;;;;;;;;;;6217944;22;19969;-90
2022/03/06 11:08:03;;;;;;;;;;;;;;;;;;6242525;22;20438;-90
2022/03/06 11:16:56;;;;;;;;;;;;;;;;;;;;;
2022/03/06 11:19:42;;;;;;;;;;;;;;;;;;;;;
2022/03/06 11:22:21;;;;;;;;;;;;;;;;;;6043483;23;20078;-90
2022/03/06 11:24:49;;;;;;;;;;;;;;;;;;6009741;23;20051;-91
2022/03/06 11:27:31;;;;;;;;;;;;;;;;;;6036365;23;20168;-90
2022/03/06 11:30:08;;;;;;;;;;;;;;;;;;;;;
2022/03/06 11:32:39;;;;;;;;;;;;;;;;;;6029305;23;20020;-91
2022/03/06 11:35:06;;;;;;;;;;;;;;;;;;6034360;23;19926;-91
2022/03/06 11:37:43;;;;;;;;;;;;;;;;;;6056908;23;19918;-90
2022/03/06 11:40:14;;;;;;;;;;;;;;;;;;6030558;23;19924;-91
2022/03/06 11:42:41;;;;;;;;;;;;;;;;;;6083327;23;19920;-91
2022/03/06 11:45:08;;;;;;;;;;;;;;;;;;6110907;23;19929;-91
2022/03/06 11:47:49;;;;;;;;;;;;;;;;;;6098705;23;19924;-91
2022/03/06 11:50:31;;;;;;;;;;;;;;;;;;6100176;23;19925;-90
2022/03/06 11:53:02;;;;;;;;;;;;;;;;;;6141717;22;20004;-90
2022/03/06 11:55:32;;;;;;;;;;;;;;;;;;6269938;22;20343;-90
2022/03/06 11:57:59;;;;;;;;;;;;;;;;;;6268875;22;19919;-89
2022/03/06 12:00:27;;;;;;;;;;;;;;;;;;6222820;22;20294;-90
2022/03/06 12:02:57;;;;;;;;;;;;;;;;;;6248162;22;19990;-90
2022/03/06 12:05:26;;;;;;;;;;;;;;;;;;6272797;22;19930;-90
2022/03/06 12:07:59;;;;;;;;;;;;;;;;;;6275861;22;19916;-91
2022/03/06 12:10:26;;;;;;;;;;;;;;;;;;6222673;22;19916;-91
2022/03/06 12:12:52;;;;;;;;;;;;;;;;;;6223536;22;19923;-91
2022/03/06 12:15:27;;;;;;;;;;;;;;;;;;6249315;22;19969;-90
2022/03/06 12:17:53;;;;;;;;;;;;;;;;;;6183624;23;19917;-90
2022/03/06 12:20:30;;;;;;;;;;;;;;;;;;6160381;23;19923;-89
2022/03/06 12:22:57;;;;;;;;;;;;;;;;;;6212380;23;20352;-91
2022/03/06 12:25:34;;;;;;;;;;;;;;;;;;6213384;23;19962;-90
2022/03/06 12:28:02;;;;;;;;;;;;;;;;;;6209314;23;20293;-89
2022/03/06 12:30:28;;;;;;;;;;;;;;;;;;6157192;23;20071;-89
2022/03/06 12:32:54;;;;;;;;;;;;;;;;;;6207738;23;19943;-89
2022/03/06 12:35:22;;;;;;;;;;;;;;;;;;6205668;23;19920;-90
2022/03/06 12:37:58;;;;;;;;;;;;;;;;;;6207294;23;19952;-89
2022/03/06 12:40:37;;;;;;;;;;;;;;;;;;6181317;23;19943;-89
2022/03/06 12:43:42;;;;;;;;;;;;;;;;;;;;;
2022/03/06 12:46:29;;;;;;;;;;;;;;;;;;6094384;23;19917;-89
2022/03/06 12:48:55;;;;;;;;;;;;;;;;;;6213875;22;20252;-88
2022/03/06 12:51:29;;;;;;;;;;;;;;;;;;6273069;22;19924;-90
2022/03/06 12:54:08;;;;;;;;;;;;;;;;;;6223195;22;20018;-89
2022/03/06 12:56:36;;;;;;;;;;;;;;;;;;6221855;22;19951;-90
2022/03/06 12:59:16;;;;;;;;;;;;;;;;;;;;;
2022/03/06 13:01:46;;;;;;;;;;;;;;;;;;6246847;22;19923;-90
2022/03/06 13:04:17;;;;;;;;;;;;;;;;;;6220877;22;20037;-89
2022/03/06 13:06:53;;;;;;;;;;;;;;;;;;6248137;22;19922;-90
2022/03/06 13:09:37;;;;;;;;;;;;;;;;;;6239040;22;20334;-89
2022/03/06 13:12:08;;;;;;;;;;;;;;;;;;6210794;22;19915;-90
2022/03/06 13:14:45;;;;;;;;;;;;;;;;;;6272254;22;19919;-91
2022/03/06 13:17:27;;;;;;;;;;;;;;;;;;6249244;22;19926;-90
2022/03/06 13:20:10;;;;;;;;;;;;;;;;;;;;;
2022/03/06 13:22:40;;;;;;;;;;;;;;;;;;6245294;22;19969;-89
2022/03/06 13:25:11;;;;;;;;;;;;;;;;;;6221012;22;20383;-90
2022/03/06 13:27:38;;;;;;;;;;;;;;;;;;6221514;22;20251;-88
2022/03/06 13:30:04;;;;;;;;;;;;;;;;;;6245407;22;19915;-89
2022/03/06 13:32:34;;;;;;;;;;;;;;;;;;6218879;22;19985;-89
2022/03/06 13:35:02;;;;;;;;;;;;;;;;;;6218178;22;20010;-89
2022/03/06 13:37:29;;;;;;;;;;;;;;;;;;6217480;22;19995;-88
2022/03/06 13:39:55;;;;;;;;;;;;;;;;;;6180734;23;19927;-89
2022/03/06 13:42:22;;;;;;;;;;;;;;;;;;6208907;23;19920;-88
2022/03/06 13:44:53;;;;;;;;;;;;;;;;;;6207187;23;19920;-88
2022/03/06 13:47:23;;;;;;;;;;;;;;;;;;6209226;23;20353;-88
2022/03/06 13:50:19;;;;;;;;;;;;;;;;;;;;;
2022/03/06 13:56:22;;;;;;;;;;;;;;;;;;6210691;23;19940;-87
2022/03/06 13:59:05;;;;;;;;;;;;;;;;;;;;;
2022/03/06 14:02:01;;;;;;;;;;;;;;;;;;;;;
2022/03/06 14:04:38;;;;;;;;;;;;;;;;;;6120999;23;19925;-88
2022/03/06 14:07:19;;;;;;;;;;;;;;;;;;6133278;23;19925;-90
2022/03/06 14:38:37;;;;;;;;;;;;;;;;;;5873757;24;19922;-89
2022/03/06 15:28:13;;;;;;;;;;;;;;;;;;5954917;24;19946;-89
2022/03/06 15:33:49;;;;;;;;;;;;;;;;;;5921065;24;20009;-88
2022/03/06 15:54:40;;;;;;;;;;;;;;;;;;5990811;23;19918;-91
2022/03/06 15:57:08;;;;;;;;;;;;;;;;;;5978185;23;19918;-92
2022/03/06 15:59:54;;;;;;;;;;;;;;;;;;6005281;23;19922;-91
2022/03/06 16:02:37;;;;;;;;;;;;;;;;;;;;;
2022/03/06 16:05:36;;;;;;;;;;;;;;;;;;5998171;23;20177;-92
2022/03/06 16:08:09;;;;;;;;;;;;;;;;;;6054856;23;20406;-91
2022/03/06 16:10:36;;;;;;;;;;;;;;;;;;6037912;23;19925;-91
2022/03/06 16:13:28;;;;;;;;;;;;;;;;;;;;;
2022/03/06 16:16:20;;;;;;;;;;;;;;;;;;;;;
2022/03/06 16:18:55;;;;;;;;;;;;;;;;;;6032145;23;20355;-91
2022/03/06 16:33:55;;;;;;;;;;;;;;;;;;5929990;24;19931;-92
2022/03/06 16:36:54;;;;;;;;;;;;;;;;;;5902099;24;19928;-91
2022/03/06 16:42:51;;;;;;;;;;;;;;;;;;5888809;24;19938;-91
2022/03/06 16:45:32;;;;;;;;;;;;;;;;;;5786587;24;19925;-91
2022/03/06 16:48:33;;;;;;;;;;;;;;;;;;;;;
2022/03/06 16:51:21;;;;;;;;;;;;;;;;;;5795941;24;19921;-90
2022/03/06 16:57:02;;;;;;;;;;;;;;;;;;5779621;24;19940;-90
2022/03/06 17:03:26;;;;;;;;;;;;;;;;;;;;;
2022/03/06 17:09:39;;;;;;;;;;;;;;;;;;;;;
2022/03/06 17:12:43;;;;;;;;;;;;;;;;;;5921371;24;19927;-91
2022/03/06 17:15:38;;;;;;;;;;;;;;;;;;6030000;23;20012;-91
2022/03/06 17:18:04;;;;;;;;;;;;;;;;;;6065749;23;20037;-89
2022/03/06 17:20:44;;;;;;;;;;;;;;;;;;;;;
2022/03/06 17:23:23;;;;;;;;;;;;;;;;;;6009547;23;20539;-89
2022/03/06 17:26:01;;;;;;;;;;;;;;;;;;;;;
2022/03/06 17:28:38;;;;;;;;;;;;;;;;;;6022894;23;20027;-89
2022/03/06 17:31:06;;;;;;;;;;;;;;;;;;6034538;23;19984;-90
2022/03/06 17:33:32;;;;;;;;;;;;;;;;;;6027724;23;20221;-90
2022/03/06 17:36:05;;;;;;;;;;;;;;;;;;5981825;23;19947;-89
2022/03/06 17:38:35;;;;;;;;;;;;;;;;;;5980476;23;19923;-90
2022/03/06 17:41:17;;;;;;;;;;;;;;;;;;6051941;23;19921;-90
2022/03/06 17:43:58;;;;;;;;;;;;;;;;;;6090496;23;20402;-92
2022/03/06 17:46:24;;;;;;;;;;;;;;;;;;6088612;23;19921;-90
2022/03/06 17:48:51;;;;;;;;;;;;;;;;;;6113482;23;19989;-88
2022/03/06 17:51:19;;;;;;;;;;;;;;;;;;6064533;23;19968;-89
2022/03/06 17:53:46;;;;;;;;;;;;;;;;;;6112791;23;19964;-89
2022/03/06 17:56:24;;;;;;;;;;;;;;;;;;6086085;23;19926;-88
2022/03/06 17:58:51;;;;;;;;;;;;;;;;;;6086184;23;19921;-90
2022/03/06 18:01:17;;;;;;;;;;;;;;;;;;6160911;23;20438;-90
2022/03/06 18:03:44;;;;;;;;;;;;;;;;;;6211144;22;19919;-89
2022/03/06 18:06:12;;;;;;;;;;;;;;;;;;6214376;22;19969;-90
2022/03/06 18:08:41;;;;;;;;;;;;;;;;;;6214001;22;20256;-89
2022/03/06 18:11:08;;;;;;;;;;;;;;;;;;6215501;22;19961;-90
2022/03/06 18:13:36;;;;;;;;;;;;;;;;;;6239590;22;19919;-89
2022/03/06 18:16:03;;;;;;;;;;;;;;;;;;6214507;22;20351;-89
2022/03/06 18:18:33;;;;;;;;;;;;;;;;;;6214725;22;20502;-89
2022/03/06 18:20:59;;;;;;;;;;;;;;;;;;6265848;22;19922;-89
2022/03/06 18:23:29;;;;;;;;;;;;;;;;;;6240084;22;19919;-89
2022/03/06 18:26:20;;;;;;;;;;;;;;;;;;6244471;22;19990;-87
2022/03/06 18:28:47;;;;;;;;;;;;;;;;;;6241187;22;19919;-88
2022/03/06 18:31:15;;;;;;;;;;;;;;;;;;6215634;22;19957;-88
2022/03/06 18:33:42;;;;;;;;;;;;;;;;;;6215698;22;19919;-90
2022/03/06 18:36:27;;;;;;;;;;;;;;;;;;6268142;22;19970;-89
2022/03/06 18:38:55;;;;;;;;;;;;;;;;;;6215694;22;19926;-90
2022/03/06 18:41:22;;;;;;;;;;;;;;;;;;6214606;22;19919;-89
2022/03/06 18:43:54;;;;;;;;;;;;;;;;;;6239546;22;19990;-89
2022/03/06 18:46:23;;;;;;;;;;;;;;;;;;6234937;23;19929;-89
2022/03/06 18:48:50;;;;;;;;;;;;;;;;;;6183935;23;19986;-89
2022/03/06 18:51:17;;;;;;;;;;;;;;;;;;6207792;23;19986;-89
2022/03/06 18:54:03;;;;;;;;;;;;;;;;;;6211771;23;19918;-88
2022/03/06 18:56:31;;;;;;;;;;;;;;;;;;6209835;23;20009;-88
2022/03/06 18:58:58;;;;;;;;;;;;;;;;;;6234344;22;19923;-89
2022/03/06 19:01:39;;;;;;;;;;;;;;;;;;6123109;23;19925;-89
2022/03/06 19:04:07;;;;;;;;;;;;;;;;;;6142836;23;19921;-89
2022/03/06 19:06:34;;;;;;;;;;;;;;;;;;6094161;23;19920;-89
2022/03/06 19:09:00;;;;;;;;;;;;;;;;;;6141468;23;19952;-89
2022/03/06 19:11:27;;;;;;;;;;;;;;;;;;6094832;23;19921;-89
2022/03/06 19:13:56;;;;;;;;;;;;;;;;;;6068628;23;20027;-89
2022/03/06 19:16:23;;;;;;;;;;;;;;;;;;6093555;23;20368;-89
2022/03/06 19:18:50;;;;;;;;;;;;;;;;;;6123631;23;19966;-89
2022/03/06 19:21:33;;;;;;;;;;;;;;;;;;6151444;23;20363;-88
2022/03/06 19:24:11;;;;;;;;;;;;;;;;;;6173566;23;19920;-88
2022/03/06 19:26:47;;;;;;;;;;;;;;;;;;6151697;23;19978;-89
2022/03/06 19:29:15;;;;;;;;;;;;;;;;;;6117782;23;19917;-88
2022/03/06 19:31:47;;;;;;;;;;;;;;;;;;6179468;22;19927;-88
2022/03/06 19:34:15;;;;;;;;;;;;;;;;;;6209625;22;19941;-89
2022/03/06 19:36:41;;;;;;;;;;;;;;;;;;6241309;22;19927;-90
2022/03/06 19:39:11;;;;;;;;;;;;;;;;;;6240848;22;19931;-89
2022/03/06 19:41:41;;;;;;;;;;;;;;;;;;6241620;22;19916;-89
2022/03/06 19:44:09;;;;;;;;;;;;;;;;;;6215094;22;19919;-89
2022/03/06 19:46:39;;;;;;;;;;;;;;;;;;6215763;22;20287;-89
2022/03/06 19:49:10;;;;;;;;;;;;;;;;;;6237249;22;19950;-89
2022/03/06 19:51:40;;;;;;;;;;;;;;;;;;6238917;22;19994;-89
2022/03/06 19:54:07;;;;;;;;;;;;;;;;;;6215303;22;19925;-89
2022/03/06 19:56:34;;;;;;;;;;;;;;;;;;6216268;22;19927;-88
2022/03/06 19:59:20;;;;;;;;;;;;;;;;;;6239561;22;19919;-89
2022/03/06 20:01:48;;;;;;;;;;;;;;;;;;6240765;22;20100;-89
2022/03/06 20:04:20;;;;;;;;;;;;;;;;;;6211003;22;19915;-89
2022/03/06 20:06:47;;;;;;;;;;;;;;;;;;6216769;22;20259;-89
2022/03/06 20:09:14;;;;;;;;;;;;;;;;;;6265083;22;19930;-90
2022/03/06 20:11:45;;;;;;;;;;;;;;;;;;6239338;22;19919;-89
2022/03/06 20:14:11;;;;;;;;;;;;;;;;;;6240918;22;19926;-89
2022/03/06 20:16:41;;;;;;;;;;;;;;;;;;6237599;22;19923;-89
2022/03/06 20:19:23;;;;;;;;;;;;;;;;;;6236588;22;19923;-89
2022/03/06 20:21:50;;;;;;;;;;;;;;;;;;6241945;22;20309;-90
2022/03/06 20:24:21;;;;;;;;;;;;;;;;;;6218686;22;19995;-89
2022/03/06 20:26:51;;;;;;;;;;;;;;;;;;6214972;22;19923;-91
2022/03/06 20:29:22;;;;;;;;;;;;;;;;;;6218316;22;19919;-90
2022/03/06 20:31:49;;;;;;;;;;;;;;;;;;6217986;22;19919;-89
2022/03/06 20:34:37;;;;;;;;;;;;;;;;;;6243416;22;19919;-90
2022/03/06 20:37:11;;;;;;;;;;;;;;;;;;6245558;22;19923;-89
2022/03/06 20:39:38;;;;;;;;;;;;;;;;;;6241912;22;19934;-91
2022/03/06 20:42:13;;;;;;;;;;;;;;;;;;6168566;22;19986;-91
2022/03/06 20:44:55;;;;;;;;;;;;;;;;;;6229416;22;19926;-91
2022/03/06 20:47:22;;;;;;;;;;;;;;;;;;6262598;22;20233;-90
2022/03/06 20:49:49;;;;;;;;;;;;;;;;;;6244804;22;20518;-89
2022/03/06 20:52:18;;;;;;;;;;;;;;;;;;6241265;22;19915;-90
2022/03/06 20:54:55;;;;;;;;;;;;;;;;;;6243809;22;19923;-90
2022/03/06 20:57:22;;;;;;;;;;;;;;;;;;6242970;22;19915;-90